Time;durP1;ratioP1;P1;durP2;ratioP2;P2;SDS_P1;SDS_P2;PMS_P1;PMS_P2;Temp;Humidity;BMP_temperature;BMP_pressure;BME280_temperature;BME280_humidity;BME280_pressure;Samples;Min_cycle;Max_cycle;Signal;HPM_P1;HPM_P2
2021/05/03 00:02:22;;;;;;;4.20;3.90;;;;;;;7.35;74.60;99129.28;4736104;29;102775;-70
2021/05/03 00:04:49;;;;;;;4.20;3.90;;;;;;;7.33;74.29;99131.13;4736014;29;103213;-72
2021/05/03 00:07:16;;;;;;;4.00;3.60;;;;;;;7.30;74.27;99135.66;4738003;29;104677;-71
2021/05/03 00:09:44;;;;;;;5.80;5.30;;;;;;;7.25;74.78;99133.28;4719498;29;105319;-71
2021/05/03 00:12:13;;;;;;;4.40;4.03;;;;;;;6.99;76.46;99136.41;4734435;29;102995;-70
2021/05/03 00:14:40;;;;;;;5.73;5.23;;;;;;;6.67;78.25;99124.06;4736217;29;102945;-69
2021/05/03 00:17:07;;;;;;;4.73;4.10;;;;;;;6.87;77.17;99129.16;4736292;29;104566;-70
2021/05/03 00:19:36;;;;;;;4.70;4.30;;;;;;;6.97;76.68;99128.63;4736263;29;103647;-69
2021/05/03 00:22:03;;;;;;;5.13;4.63;;;;;;;7.03;76.20;99127.44;4735268;29;102866;-69
2021/05/03 00:24:30;;;;;;;5.30;4.80;;;;;;;6.97;76.46;99127.75;4752979;29;102903;-70
2021/05/03 00:26:57;;;;;;;6.20;4.97;;;;;;;6.77;77.61;99125.28;4729637;29;106776;-69
2021/05/03 00:29:25;;;;;;;5.63;5.13;;;;;;;6.54;78.88;99131.66;4735635;29;105215;-69
2021/05/03 00:31:52;;;;;;;4.70;4.17;;;;;;;6.71;77.82;99131.69;4735264;29;103053;-69
2021/05/03 00:34:19;;;;;;;3.97;3.67;;;;;;;6.77;77.64;99130.53;4735793;29;103300;-69
2021/05/03 00:36:46;;;;;;;4.70;4.17;;;;;;;6.81;77.37;99129.47;4735311;29;104181;-69
2021/05/03 00:39:13;;;;;;;5.13;4.63;;;;;;;6.76;78.57;99136.72;4735778;29;103156;-69
2021/05/03 00:41:40;;;;;;;5.27;3.80;;;;;;;6.81;77.87;99132.09;4735817;29;102961;-70
2021/05/03 00:44:07;;;;;;;5.10;4.57;;;;;;;6.81;78.50;99135.56;4736195;29;103101;-69
2021/05/03 00:46:38;;;;;;;5.60;5.10;;;;;;;6.69;79.19;99130.94;4735151;29;103134;-69
2021/05/03 00:49:05;;;;;;;4.40;4.00;;;;;;;6.80;78.23;99147.00;4734564;29;105028;-69
2021/05/03 00:51:33;;;;;;;4.30;3.90;;;;;;;6.91;78.05;99142.06;4734202;29;103174;-70
2021/05/03 00:54:00;;;;;;;6.17;5.57;;;;;;;6.93;77.61;99142.00;4733799;29;103015;-69
2021/05/03 00:56:27;;;;;;;4.20;3.90;;;;;;;6.93;78.00;99147.25;4734753;29;103744;-69
2021/05/03 00:58:54;;;;;;;5.20;4.70;;;;;;;6.97;78.00;99146.16;4734958;29;105972;-69
2021/05/03 01:01:21;;;;;;;5.43;4.70;;;;;;;6.77;79.27;99141.91;4729100;29;107836;-69
2021/05/03 01:03:49;;;;;;;4.30;3.90;;;;;;;6.69;79.63;99146.69;4735705;29;103182;-69
2021/05/03 01:06:18;;;;;;;5.63;5.13;;;;;;;6.50;80.55;99142.41;4736616;29;103446;-69
2021/05/03 01:08:45;;;;;;;5.90;5.30;;;;;;;6.43;80.49;99147.94;4734333;29;103295;-69
2021/05/03 01:11:12;;;;;;;5.83;5.33;;;;;;;6.34;80.74;99143.13;4738226;29;103121;-69
2021/05/03 01:13:40;;;;;;;6.57;5.83;;;;;;;6.12;81.76;99147.72;4735603;29;103365;-69
2021/05/03 01:16:07;;;;;;;7.27;5.77;;;;;;;5.59;84.11;99157.16;4735082;29;103863;-71
2021/05/03 01:18:36;;;;;;;6.03;5.43;;;;;;;5.68;84.13;99157.63;4735399;29;103807;-69
2021/05/03 01:21:04;;;;;;;7.13;5.73;;;;;;;5.92;82.02;99160.94;4734315;29;103037;-68
2021/05/03 01:23:31;;;;;;;5.93;5.33;;;;;;;5.93;82.16;99162.63;4744391;29;107289;-69
2021/05/03 01:25:59;;;;;;;6.60;5.93;;;;;;;5.79;83.63;99165.00;4737251;29;103388;-70
2021/05/03 01:28:26;;;;;;;6.13;5.60;;;;;;;5.71;84.10;99167.13;4736455;29;104368;-69
2021/05/03 01:30:53;;;;;;;6.83;6.13;;;;;;;5.70;83.15;99166.25;4734726;29;103020;-69
2021/05/03 01:33:20;;;;;;;8.53;5.90;;;;;;;5.68;83.16;99167.25;4734872;29;103069;-69
2021/05/03 01:35:49;;;;;;;7.00;6.30;;;;;;;5.74;82.71;99166.97;4734465;29;109321;-69
2021/05/03 01:38:17;;;;;;;5.77;5.27;;;;;;;5.73;82.25;99165.25;4734211;29;103788;-69
2021/05/03 01:40:45;;;;;;;6.10;5.50;;;;;;;5.71;82.96;99165.34;4734781;29;102908;-69
2021/05/03 01:43:15;;;;;;;5.50;4.90;;;;;;;5.67;83.35;99155.09;4735200;29;102976;-69
2021/05/03 01:45:44;;;;;;;5.03;4.53;;;;;;;5.68;84.02;99156.75;4734081;29;103973;-69
2021/05/03 01:48:15;;;;;;;6.33;5.50;;;;;;;5.67;83.98;99160.31;4734838;29;103958;-69
2021/05/03 01:50:42;;;;;;;4.97;4.37;;;;;;;5.77;83.09;99156.34;4734298;29;103031;-69
2021/05/03 01:53:10;;;;;;;4.80;4.40;;;;;;;5.86;82.67;99163.84;4740416;29;103085;-70
2021/05/03 01:55:39;;;;;;;4.53;4.13;;;;;;;5.69;84.37;99156.72;4751039;29;103429;-69
2021/05/03 01:58:08;;;;;;;4.23;3.83;;;;;;;5.76;83.60;99155.50;4738494;29;103898;-69
2021/05/03 02:00:36;;;;;;;6.27;5.67;;;;;;;5.83;83.60;99166.56;4726985;29;102819;-71
2021/05/03 02:03:03;;;;;;;5.50;4.87;;;;;;;5.85;83.55;99164.75;4731948;29;102814;-70
2021/05/03 02:05:30;;;;;;;6.70;6.00;;;;;;;5.84;82.99;99168.25;4734271;29;104608;-68
2021/05/03 02:08:00;;;;;;;8.23;6.93;;;;;;;5.52;85.61;99161.00;4745640;29;109730;-69
2021/05/03 02:10:28;;;;;;;8.20;6.00;;;;;;;5.32;87.27;99163.66;4743661;29;103093;-69
2021/05/03 02:12:57;;;;;;;7.30;6.33;;;;;;;5.40;86.70;99157.16;4739453;29;102798;-71
2021/05/03 02:15:26;;;;;;;7.50;6.73;;;;;;;5.44;86.26;99170.97;4734364;29;103169;-71
2021/05/03 02:17:53;;;;;;;5.57;5.00;;;;;;;5.58;85.42;99165.97;4737498;29;103771;-73
2021/05/03 02:20:21;;;;;;;5.10;4.57;;;;;;;5.71;84.13;99164.50;4735231;29;102979;-71
2021/05/03 02:22:48;;;;;;;6.17;5.57;;;;;;;5.48;85.50;99175.16;4724658;29;102746;-72
2021/05/03 02:25:15;;;;;;;7.33;6.57;;;;;;;5.41;85.66;99168.50;4751299;29;104963;-71
2021/05/03 02:27:47;;;;;;;6.10;5.50;;;;;;;5.30;85.75;99161.09;4743835;29;105025;-71
2021/05/03 02:30:16;;;;;;;6.87;6.27;;;;;;;5.32;85.32;99169.75;4734051;29;102976;-72
2021/05/03 02:32:44;;;;;;;6.63;6.03;;;;;;;5.22;86.37;99164.03;4709080;29;102901;-73
2021/05/03 02:35:13;;;;;;;5.90;5.03;;;;;;;5.19;86.19;99161.56;4733358;29;104915;-71
2021/05/03 02:37:41;;;;;;;5.80;5.20;;;;;;;5.30;85.33;99170.72;4717708;29;103363;-72
2021/05/03 02:40:09;;;;;;;6.10;5.50;;;;;;;5.31;84.94;99164.53;4716512;29;102917;-72
2021/05/03 02:42:37;;;;;;;6.53;5.93;;;;;;;5.36;83.97;99163.44;4734484;29;104286;-72
2021/05/03 02:45:06;;;;;;;6.37;5.77;;;;;;;5.36;84.02;99166.06;4733863;29;105923;-72
2021/05/03 02:47:34;;;;;;;6.13;5.53;;;;;;;5.29;84.14;99169.88;4734246;29;103291;-72
2021/05/03 02:50:01;;;;;;;6.07;5.57;;;;;;;4.90;87.06;99172.44;4734111;29;103103;-71
2021/05/03 02:52:28;;;;;;;7.00;6.30;;;;;;;4.86;87.45;99176.06;4734833;29;103672;-72
2021/05/03 02:54:55;;;;;;;9.97;6.90;;;;;;;4.58;88.21;99181.59;4750519;29;111936;-71
2021/05/03 02:57:22;;;;;;;7.00;5.83;;;;;;;4.46;89.71;99176.03;4748338;29;103984;-73
2021/05/03 02:59:49;;;;;;;7.63;6.80;;;;;;;4.62;88.51;99179.72;4730962;29;102799;-72
2021/05/03 03:02:16;;;;;;;5.70;5.10;;;;;;;4.78;87.32;99179.94;4716288;29;103022;-71
2021/05/03 03:04:44;;;;;;;5.70;5.20;;;;;;;4.89;86.74;99181.19;4729264;29;103705;-72
2021/05/03 03:07:11;;;;;;;6.20;5.70;;;;;;;4.94;86.21;99184.47;4739287;29;104506;-72
2021/05/03 03:09:39;;;;;;;6.30;5.70;;;;;;;4.60;88.13;99173.72;4750907;29;102977;-72
2021/05/03 03:12:09;;;;;;;8.00;6.83;;;;;;;4.29;89.26;99179.31;4731893;29;103211;-74
2021/05/03 03:14:36;;;;;;;5.93;5.33;;;;;;;4.36;90.48;99175.53;4739826;29;105132;-76
2021/05/03 03:17:05;;;;;;;7.47;6.63;;;;;;;4.40;89.50;99171.03;4741014;29;104261;-73
2021/05/03 03:19:32;;;;;;;9.47;7.90;;;;;;;4.19;91.06;99177.09;4736991;29;102954;-73
2021/05/03 03:22:00;;;;;;;7.87;7.17;;;;;;;4.05;92.01;99181.09;4737225;29;102832;-74
2021/05/03 03:24:26;;;;;;;7.80;7.00;;;;;;;3.73;93.19;99186.72;4752341;29;104424;-73
2021/05/03 03:26:53;;;;;;;8.20;7.03;;;;;;;3.96;93.65;99194.53;4752342;29;105434;-74
2021/05/03 03:29:20;;;;;;;7.67;6.90;;;;;;;4.31;92.42;99208.00;4734285;29;103328;-74
2021/05/03 03:31:47;;;;;;;10.60;7.93;;;;;;;4.47;90.34;99193.41;4742173;29;103405;-73
2021/05/03 03:34:15;;;;;;;6.70;6.10;;;;;;;4.52;89.79;99194.09;4737141;29;103909;-75
2021/05/03 03:36:42;;;;;;;6.63;6.03;;;;;;;4.64;88.85;99196.19;4736239;29;103799;-72
2021/05/03 03:39:10;;;;;;;6.43;5.70;;;;;;;4.60;88.80;99199.88;4735150;29;103284;-71
2021/05/03 03:41:37;;;;;;;9.07;7.13;;;;;;;4.50;88.36;99199.38;4737490;29;102741;-75
2021/05/03 03:44:05;;;;;;;7.87;6.93;;;;;;;4.39;89.47;99204.19;4731780;29;105811;-85
2021/05/03 03:46:32;;;;;;;7.97;6.60;;;;;;;4.40;89.42;99202.44;4736186;29;103830;-83
2021/05/03 03:48:59;;;;;;;7.60;6.80;;;;;;;4.25;90.24;99209.09;4743127;29;102948;-81
2021/05/03 03:51:26;;;;;;;8.03;7.23;;;;;;;4.09;90.89;99198.41;4737742;29;107496;-82
2021/05/03 03:53:54;;;;;;;9.83;8.47;;;;;;;3.90;92.16;99207.00;4735054;29;104007;-84
2021/05/03 03:56:22;;;;;;;8.27;7.47;;;;;;;3.95;92.49;99200.69;4748433;29;103159;-83
2021/05/03 03:58:50;;;;;;;7.43;6.60;;;;;;;4.18;91.06;99201.56;4737570;29;106699;-84
2021/05/03 04:01:17;;;;;;;6.47;5.87;;;;;;;4.25;90.25;99205.63;4721918;29;103527;-86
2021/05/03 04:03:47;;;;;;;8.17;7.37;;;;;;;4.26;89.96;99209.97;4738357;29;104004;-88
2021/05/03 04:06:25;;;;;;;5.80;5.20;;;;;;;4.28;89.58;99213.38;4738741;29;103777;-84
2021/05/03 04:08:57;;;;;;;6.70;5.40;;;;;;;4.38;89.32;99219.97;4750227;29;102977;-82
2021/05/03 04:11:39;;;;;;;7.93;7.13;;;;;;;4.11;90.21;99221.84;4754359;29;102921;-81
2021/05/03 04:14:22;;;;;;;7.37;6.07;;;;;;;4.19;91.19;99214.56;4741582;29;104277;-82
2021/05/03 04:25:12;;;;;;;6.93;6.03;;;;;;;4.54;88.37;99231.53;4735884;29;104359;-86
2021/05/03 04:27:40;;;;;;;8.70;6.20;;;;;;;4.56;87.66;99225.31;4726660;29;104516;-77
2021/05/03 04:30:08;;;;;;;6.23;4.77;;;;;;;4.63;87.35;99233.78;4733316;29;103117;-81
2021/05/03 04:32:36;;;;;;;7.23;6.43;;;;;;;4.43;88.31;99238.94;4733534;29;103120;-74
2021/05/03 04:35:05;;;;;;;9.27;7.33;;;;;;;4.44;88.01;99236.25;4733659;29;111626;-81
2021/05/03 04:37:32;;;;;;;7.73;6.93;;;;;;;4.32;89.88;99230.66;4732654;29;103921;-76
2021/05/03 04:39:59;;;;;;;8.33;6.60;;;;;;;4.29;89.63;99239.47;4730541;29;103272;-79
2021/05/03 04:42:26;;;;;;;6.90;6.20;;;;;;;4.46;89.05;99236.22;4717985;29;103433;-77
2021/05/03 04:44:54;;;;;;;6.93;6.10;;;;;;;4.44;89.64;99244.09;4732367;29;104341;-77
2021/05/03 04:47:21;;;;;;;8.80;6.87;;;;;;;4.55;88.55;99241.06;4729792;29;103165;-77
2021/05/03 04:49:48;;;;;;;6.67;6.07;;;;;;;4.64;87.85;99248.56;4727999;29;103150;-80
2021/05/03 04:52:15;;;;;;;7.20;6.50;;;;;;;4.66;87.87;99241.47;4731982;29;103755;-82
2021/05/03 04:54:42;;;;;;;7.00;6.20;;;;;;;4.73;88.14;99244.72;4729966;29;104105;-78
2021/05/03 04:57:10;;;;;;;7.10;6.40;;;;;;;4.72;88.54;99249.09;4737437;29;104774;-77
2021/05/03 04:59:37;;;;;;;8.60;7.67;;;;;;;4.47;90.19;99256.22;4731542;29;103601;-77
2021/05/03 05:02:06;;;;;;;8.50;7.27;;;;;;;4.55;90.16;99248.91;4731948;29;103121;-77
2021/05/03 05:04:33;;;;;;;6.50;5.90;;;;;;;4.67;89.68;99253.66;4731175;29;103331;-80
2021/05/03 05:07:00;;;;;;;6.87;6.07;;;;;;;4.82;88.00;99253.06;4731868;29;105135;-77
2021/05/03 05:09:27;;;;;;;9.00;7.60;;;;;;;4.80;88.36;99254.03;4738900;29;103212;-79
2021/05/03 05:11:54;;;;;;;7.00;6.33;;;;;;;4.92;88.89;99254.38;4730692;29;103530;-78
2021/05/03 05:14:21;;;;;;;8.50;5.40;;;;;;;5.10;88.31;99252.78;4735292;29;103896;-75
2021/05/03 05:16:48;;;;;;;7.10;6.40;;;;;;;5.22;87.27;99253.09;4729922;29;104277;-76
2021/05/03 05:19:17;;;;;;;7.80;7.00;;;;;;;5.20;89.27;99260.19;4724685;29;103304;-79
2021/05/03 05:21:44;;;;;;;7.37;6.17;;;;;;;5.41;88.91;99263.69;4732410;29;103227;-87
2021/05/03 05:24:11;;;;;;;9.43;7.37;;;;;;;5.55;87.83;99261.31;4738195;29;104370;-76
2021/05/03 05:26:39;;;;;;;9.83;7.83;;;;;;;5.59;86.22;99262.03;4731873;29;103928;-79
2021/05/03 05:29:06;;;;;;;8.43;6.70;;;;;;;5.57;86.31;99263.88;4732949;29;103956;-78
2021/05/03 05:31:33;;;;;;;7.77;7.03;;;;;;;5.66;85.83;99264.34;4732981;29;103351;-77
2021/05/03 05:34:00;;;;;;;7.80;7.03;;;;;;;5.88;85.12;99264.25;4730548;29;103928;-78
2021/05/03 05:36:28;;;;;;;8.57;6.63;;;;;;;6.09;84.65;99273.78;4722541;29;105331;-76
2021/05/03 05:38:55;;;;;;;9.77;7.33;;;;;;;6.11;84.05;99266.72;4737779;29;103208;-79
2021/05/03 05:41:22;;;;;;;8.20;7.40;;;;;;;6.15;84.85;99273.50;4734646;29;103224;-77
2021/05/03 05:43:50;;;;;;;13.20;8.37;;;;;;;6.19;83.71;99275.09;4734234;29;103968;-81
2021/05/03 05:46:18;;;;;;;9.73;7.13;;;;;;;6.21;83.51;99277.63;4740925;29;105895;-79
2021/05/03 05:48:46;;;;;;;7.87;6.93;;;;;;;6.25;82.91;99279.19;4746345;29;106062;-77
2021/05/03 05:51:13;;;;;;;7.30;6.10;;;;;;;6.29;82.48;99265.84;4724008;29;103293;-82
2021/05/03 05:53:41;;;;;;;7.20;6.37;;;;;;;6.31;82.79;99260.56;4728182;29;104922;-77
2021/05/03 05:56:09;;;;;;;8.33;5.90;;;;;;;6.45;82.76;99268.63;4731871;29;103824;-75
2021/05/03 05:58:36;;;;;;;15.77;10.47;;;;;;;6.57;83.16;99269.84;4735597;29;102750;-77
2021/05/03 06:01:04;;;;;;;10.73;9.63;;;;;;;6.53;84.08;99257.78;4732208;29;103333;-78
2021/05/03 06:03:31;;;;;;;10.50;8.13;;;;;;;6.80;83.43;99277.47;4743021;29;104826;-76
2021/05/03 06:05:59;;;;;;;8.10;7.03;;;;;;;7.02;82.12;99279.91;4733760;29;103806;-78
2021/05/03 06:08:26;;;;;;;11.70;10.50;;;;;;;7.12;82.54;99274.13;4740921;29;104429;-77
2021/05/03 06:10:54;;;;;;;11.73;10.47;;;;;;;7.12;83.53;99274.13;4732109;29;103155;-77
2021/05/03 06:13:21;;;;;;;9.40;8.43;;;;;;;7.27;83.23;99278.59;4738709;29;104190;-76
2021/05/03 06:15:48;;;;;;;12.37;10.37;;;;;;;7.20;82.60;99273.75;4730053;29;105776;-78
2021/05/03 06:18:16;;;;;;;12.00;10.77;;;;;;;7.14;83.99;99271.41;4734227;29;103042;-76
2021/05/03 06:20:43;;;;;;;10.23;9.20;;;;;;;7.46;83.16;99274.16;4748691;29;103058;-77
2021/05/03 06:23:11;;;;;;;10.17;9.07;;;;;;;7.73;81.84;99268.41;4716185;29;107717;-77
2021/05/03 06:25:39;;;;;;;12.60;10.30;;;;;;;7.91;80.65;99280.59;4745641;29;105359;-75
2021/05/03 06:28:08;;;;;;;10.80;9.50;;;;;;;7.93;79.94;99281.38;4720834;29;103735;-75
2021/05/03 06:30:35;;;;;;;11.23;10.13;;;;;;;8.22;79.34;99280.69;4733016;29;103128;-75
2021/05/03 06:33:03;;;;;;;8.97;7.73;;;;;;;8.46;78.65;99286.44;4726796;29;103821;-75
2021/05/03 06:35:31;;;;;;;12.27;9.37;;;;;;;8.57;77.23;99281.41;4732407;29;104471;-77
2021/05/03 06:38:00;;;;;;;10.40;9.40;;;;;;;8.65;76.38;99279.22;4716298;29;103284;-80
2021/05/03 06:40:27;;;;;;;11.80;9.60;;;;;;;8.53;77.65;99283.38;4731894;29;104660;-86
2021/05/03 06:42:54;;;;;;;13.67;10.83;;;;;;;8.60;77.28;99282.09;4716698;29;104947;-81
2021/05/03 06:45:23;;;;;;;10.53;9.37;;;;;;;8.93;75.96;99286.41;4733713;29;103803;-79
2021/05/03 06:47:51;;;;;;;11.73;8.87;;;;;;;8.44;76.67;99291.78;4734297;29;103094;-76
2021/05/03 06:50:19;;;;;;;8.93;8.10;;;;;;;8.82;74.25;99291.44;4737817;29;103221;-78
2021/05/03 06:52:46;;;;;;;12.00;9.03;;;;;;;8.91;73.47;99291.78;4732581;29;106285;-79
2021/05/03 06:55:14;;;;;;;9.00;7.80;;;;;;;9.27;72.13;99294.13;4728221;29;103739;-79
2021/05/03 06:57:43;;;;;;;10.03;8.87;;;;;;;8.81;71.69;99295.88;4738111;29;103373;-77
2021/05/03 07:00:13;;;;;;;13.43;9.60;;;;;;;8.74;72.97;99290.09;4734261;29;102664;-79
2021/05/03 07:02:41;;;;;;;10.00;8.77;;;;;;;8.95;73.06;99308.28;4733509;29;104963;-79
2021/05/03 07:05:11;;;;;;;9.40;8.47;;;;;;;9.27;72.73;99304.66;4732585;29;104040;-79
2021/05/03 07:07:39;;;;;;;9.90;8.87;;;;;;;9.25;70.24;99302.13;4735627;29;103518;-77
2021/05/03 07:10:08;;;;;;;10.60;8.60;;;;;;;9.65;69.72;99300.66;4733776;29;103357;-82
2021/05/03 07:12:40;;;;;;;8.80;7.90;;;;;;;9.60;69.18;99307.16;4736704;29;103858;-81
2021/05/03 07:15:09;;;;;;;9.40;7.53;;;;;;;10.04;69.02;99301.84;4731728;29;104507;-82
2021/05/03 07:17:37;;;;;;;10.77;9.77;;;;;;;10.03;69.60;99302.78;4734900;29;103259;-80
2021/05/03 07:20:07;;;;;;;11.17;10.07;;;;;;;10.18;68.28;99302.75;4740914;29;103355;-80
2021/05/03 07:22:37;;;;;;;10.83;9.80;;;;;;;10.30;67.39;99303.78;4753676;29;104450;-80
2021/05/03 07:25:07;;;;;;;10.03;9.13;;;;;;;10.40;66.19;99310.19;4753428;29;103717;-80
2021/05/03 07:27:35;;;;;;;10.53;8.27;;;;;;;10.62;66.77;99304.41;4733700;29;103068;-80
2021/05/03 07:30:03;;;;;;;8.80;7.93;;;;;;;10.72;66.47;99306.34;4736460;29;103664;-80
2021/05/03 07:32:30;;;;;;;10.20;9.20;;;;;;;9.93;66.22;99309.56;4731145;29;111088;-80
2021/05/03 07:34:58;;;;;;;9.13;7.87;;;;;;;10.10;66.18;99301.47;4731108;29;103292;-81
2021/05/03 07:37:26;;;;;;;9.47;8.57;;;;;;;10.09;66.60;99305.06;4731062;29;103489;-80
2021/05/03 07:39:54;;;;;;;8.87;7.97;;;;;;;10.59;65.09;99297.53;4732663;29;103331;-79
2021/05/03 07:42:21;;;;;;;9.27;7.70;;;;;;;10.05;65.25;99301.75;4730982;29;104373;-80
2021/05/03 07:45:10;;;;;;;8.73;7.87;;;;;;;10.29;63.83;99302.06;4734672;29;103351;-79
2021/05/03 07:47:37;;;;;;;8.13;7.33;;;;;;;11.20;63.50;99302.34;4735131;29;103533;-81
2021/05/03 07:50:06;;;;;;;8.53;6.93;;;;;;;10.79;62.60;99307.69;4733470;29;103082;-80
2021/05/03 07:52:34;;;;;;;8.00;7.20;;;;;;;11.41;62.61;99302.75;4736304;29;103888;-79
2021/05/03 07:55:02;;;;;;;7.67;6.97;;;;;;;11.80;61.14;99300.13;4720233;29;113146;-77
2021/05/03 07:57:29;;;;;;;6.10;5.60;;;;;;;12.56;60.02;99302.75;4733679;29;103348;-76
2021/05/03 07:59:57;;;;;;;8.57;7.37;;;;;;;12.22;57.60;99293.69;4734697;29;104838;-76
2021/05/03 08:02:24;;;;;;;8.03;7.23;;;;;;;12.49;57.09;99304.16;4734720;29;103924;-76
2021/05/03 08:04:53;;;;;;;7.80;6.40;;;;;;;12.48;56.06;99294.50;4732617;29;104171;-76
2021/05/03 08:07:20;;;;;;;7.27;6.67;;;;;;;11.84;56.27;99298.97;4736194;29;103203;-79
2021/05/03 08:09:49;;;;;;;7.10;6.47;;;;;;;12.24;55.68;99305.00;4735159;29;103428;-79
2021/05/03 08:12:16;;;;;;;6.83;6.13;;;;;;;12.37;57.09;99297.06;4729737;29;105856;-79
2021/05/03 08:14:49;;;;;;;6.43;5.83;;;;;;;11.46;58.62;99303.28;4717654;29;107453;-79
2021/05/03 08:17:17;;;;;;;6.97;6.20;;;;;;;11.20;59.19;99298.91;4734807;29;103395;-79
2021/05/03 08:19:45;;;;;;;8.50;6.27;;;;;;;10.44;62.02;99301.16;4735249;29;103467;-76
2021/05/03 08:22:13;;;;;;;6.20;5.70;;;;;;;10.59;61.45;99300.16;4735832;29;104539;-77
2021/05/03 08:24:42;;;;;;;6.87;6.27;;;;;;;10.21;60.06;99301.69;4732211;29;104156;-77
2021/05/03 08:27:10;;;;;;;7.10;6.40;;;;;;;10.91;60.47;99301.63;4735666;29;104067;-77
2021/05/03 08:29:37;;;;;;;6.20;5.60;;;;;;;11.35;59.33;99298.72;4733242;29;103026;-77
2021/05/03 08:32:05;;;;;;;8.43;6.50;;;;;;;11.09;57.94;99306.69;4731899;29;105417;-77
2021/05/03 08:34:33;;;;;;;6.80;6.20;;;;;;;11.88;58.67;99295.16;4733990;29;103944;-77
2021/05/03 08:37:00;;;;;;;6.17;5.43;;;;;;;13.45;54.77;99298.84;4734529;29;103079;-77
2021/05/03 08:39:28;;;;;;;6.77;6.23;;;;;;;12.81;55.91;99292.09;4734113;29;104591;-77
2021/05/03 08:41:57;;;;;;;6.60;6.00;;;;;;;12.71;56.21;99291.06;4736301;29;104329;-77
2021/05/03 08:44:27;;;;;;;6.77;6.17;;;;;;;12.34;56.82;99302.56;4727157;29;104293;-77
2021/05/03 08:46:55;;;;;;;6.30;5.70;;;;;;;12.66;56.65;99293.19;4732979;29;103789;-78
2021/05/03 08:49:30;;;;;;;7.57;6.27;;;;;;;12.58;56.23;99295.53;4739977;29;103464;-78
2021/05/03 08:52:04;;;;;;;5.87;5.23;;;;;;;12.70;56.20;99290.22;4733753;29;104492;-77
2021/05/03 08:54:34;;;;;;;5.27;4.87;;;;;;;13.19;56.15;99295.47;4735342;29;104936;-77
2021/05/03 08:57:02;;;;;;;6.53;5.93;;;;;;;14.23;52.69;99286.63;4733032;29;103334;-79
2021/05/03 08:59:31;;;;;;;6.60;5.77;;;;;;;15.08;51.98;99282.47;4732817;29;104742;-85
2021/05/03 09:01:59;;;;;;;6.90;6.30;;;;;;;15.60;50.98;99279.91;4728755;29;104455;-77
2021/05/03 09:04:27;;;;;;;8.63;5.97;;;;;;;16.33;49.25;99273.63;4731616;29;106660;-78
2021/05/03 09:06:59;;;;;;;12.07;6.40;;;;;;;15.80;48.91;99277.38;4722856;29;104768;-82
2021/05/03 09:09:33;;;;;;;6.57;5.67;;;;;;;15.03;50.13;99282.00;4732908;29;104064;-82
2021/05/03 09:12:03;;;;;;;6.33;5.83;;;;;;;14.85;51.26;99272.88;4737998;29;104602;-80
2021/05/03 09:14:32;;;;;;;5.33;4.93;;;;;;;15.21;49.42;99274.34;4748420;29;104629;-80
2021/05/03 09:17:00;;;;;;;7.87;5.80;;;;;;;14.61;48.55;99270.34;4734444;29;103499;-80
2021/05/03 09:19:28;;;;;;;5.30;4.90;;;;;;;14.82;49.75;99275.78;4737234;29;103602;-79
2021/05/03 09:21:59;;;;;;;5.83;5.33;;;;;;;15.46;48.01;99263.34;4735442;29;105957;-80
2021/05/03 09:24:29;;;;;;;5.93;5.43;;;;;;;15.50;49.11;99264.81;4738753;29;104676;-81
2021/05/03 09:27:04;;;;;;;7.13;5.83;;;;;;;15.07;47.66;99256.84;4731532;29;103075;-80
2021/05/03 09:29:35;;;;;;;5.60;5.00;;;;;;;15.63;50.17;99258.31;4734705;29;103248;-80
2021/05/03 09:32:06;;;;;;;4.90;4.23;;;;;;;15.04;47.52;99252.59;4716244;29;105709;-79
2021/05/03 09:34:36;;;;;;;5.37;4.97;;;;;;;14.35;49.71;99252.94;4732124;29;103690;-81
2021/05/03 09:37:29;;;;;;;5.63;5.13;;;;;;;14.68;47.04;99250.25;4732031;29;102943;-78
2021/05/03 09:40:03;;;;;;;7.70;6.10;;;;;;;15.30;47.12;99247.78;4733520;29;103280;-77
2021/05/03 09:42:58;;;;;;;9.50;6.60;;;;;;;15.92;48.05;99247.00;4733734;29;105059;-82
2021/05/03 09:45:30;;;;;;;5.40;4.90;;;;;;;16.73;47.45;99246.97;4718128;29;104309;-80
2021/05/03 09:47:59;;;;;;;6.20;5.60;;;;;;;15.19;47.71;99236.34;4730754;29;102915;-81
2021/05/03 09:50:29;;;;;;;6.07;5.47;;;;;;;15.58;46.10;99241.88;4731861;29;103299;-81
2021/05/03 09:53:01;;;;;;;5.00;4.17;;;;;;;15.88;45.05;99234.94;4731285;29;104194;-80
2021/05/03 09:55:35;;;;;;;5.70;5.10;;;;;;;14.48;47.76;99238.56;4729435;29;103620;-81
2021/05/03 09:58:14;;;;;;;5.37;4.87;;;;;;;14.95;49.33;99240.06;4729503;29;103673;-81
2021/05/03 10:00:44;;;;;;;5.37;4.87;;;;;;;15.01;46.65;99236.91;4732374;29;103015;-81
2021/05/03 10:03:32;;;;;;;6.63;4.97;;;;;;;13.87;47.65;99246.97;4729566;29;112012;-80
2021/05/03 10:06:00;;;;;;;7.00;4.67;;;;;;;13.71;48.20;99246.47;4727987;29;103790;-81
2021/05/03 10:08:27;;;;;;;4.43;4.03;;;;;;;13.96;47.10;99251.56;4739996;29;103205;-83
2021/05/03 10:10:57;;;;;;;4.17;3.77;;;;;;;14.10;49.76;99251.34;4728338;29;103156;-81
2021/05/03 10:13:28;;;;;;;4.47;3.70;;;;;;;14.09;49.56;99257.63;4714214;29;104493;-80
2021/05/03 10:15:59;;;;;;;5.50;4.57;;;;;;;13.46;48.77;99258.09;4711543;29;103502;-81
2021/05/03 10:18:27;;;;;;;4.07;3.67;;;;;;;13.38;52.92;99255.19;4712672;29;109133;-81
2021/05/03 10:20:56;;;;;;;6.30;4.40;;;;;;;13.60;52.54;99243.78;4713076;29;103274;-81
2021/05/03 10:23:28;;;;;;;4.17;3.77;;;;;;;13.79;51.99;99244.06;4714176;29;103863;-79
2021/05/03 10:25:57;;;;;;;5.30;4.80;;;;;;;14.80;50.53;99243.97;4711001;29;104233;-80
2021/05/03 10:28:25;;;;;;;4.23;3.83;;;;;;;15.03;50.36;99240.28;4713023;29;103490;-80
2021/05/03 10:30:58;;;;;;;6.20;4.70;;;;;;;14.56;49.52;99239.78;4698784;29;104557;-80
2021/05/03 10:33:36;;;;;;;4.07;3.70;;;;;;;15.25;49.99;99234.03;4713037;29;104057;-83
2021/05/03 10:36:06;;;;;;;4.83;4.43;;;;;;;14.78;49.41;99237.09;4711730;29;103800;-80
2021/05/03 10:38:38;;;;;;;5.73;4.90;;;;;;;14.51;50.73;99232.19;4719007;29;103372;-81
2021/05/03 10:41:23;;;;;;;4.43;3.40;;;;;;;14.93;47.70;99222.53;4714326;29;103163;-81
2021/05/03 10:43:53;;;;;;;4.00;3.70;;;;;;;14.93;47.15;99218.03;4710037;29;103597;-80
2021/05/03 10:49:44;;;;;;;4.30;3.50;;;;;;;15.30;42.40;99199.06;4709685;29;103879;-81
2021/05/03 10:52:15;;;;;;;4.07;3.73;;;;;;;15.73;43.58;99196.28;4695720;29;102881;-83
2021/05/03 10:54:52;;;;;;;4.73;3.27;;;;;;;16.18;45.05;99190.50;4713152;29;104332;-82
2021/05/03 10:57:36;;;;;;;5.27;3.27;;;;;;;16.13;42.71;99189.22;4703916;29;104746;-83
2021/05/03 11:00:30;;;;;;;4.60;3.30;;;;;;;17.13;41.36;99180.19;4714841;29;103376;-81
2021/05/03 11:02:59;;;;;;;3.87;3.57;;;;;;;16.20;40.28;99191.19;4693931;29;103246;-80
2021/05/03 11:05:27;;;;;;;3.83;3.50;;;;;;;16.53;41.47;99174.06;4711201;29;105030;-83
2021/05/03 11:08:17;;;;;;;3.50;3.20;;;;;;;16.76;40.58;99172.84;4703022;29;104296;-82
2021/05/03 11:10:55;;;;;;;2.60;2.40;;;;;;;17.25;41.08;99166.56;4705472;29;103301;-81
2021/05/03 11:14:00;;;;;;;3.40;3.10;;;;;;;15.92;40.43;99180.41;4709556;29;104513;-78
2021/05/03 11:16:54;;;;;;;3.65;2.72;;;;;;;16.38;40.76;99172.75;4670719;29;103544;-78
2021/05/03 11:20:00;;;;;;;2.78;2.58;;;;;;;15.99;39.28;99176.25;4665373;30;103696;-77
2021/05/03 11:22:41;;;;;;;3.17;2.92;;;;;;;15.89;42.11;99175.31;4669114;29;104566;-80
2021/05/03 11:25:11;;;;;;;4.90;2.63;;;;;;;16.00;39.30;99172.63;4699035;29;102955;-81
2021/05/03 11:27:49;;;;;;;4.10;3.10;;;;;;;14.94;40.55;99171.00;4712757;29;103838;-79
2021/05/03 11:30:25;;;;;;;4.40;3.03;;;;;;;15.34;41.55;99172.03;4718857;29;103736;-77
2021/05/03 11:32:54;;;;;;;3.22;2.92;;;;;;;15.46;39.55;99167.50;4727812;29;103379;-77
2021/05/03 11:35:30;;;;;;;2.58;2.38;;;;;;;15.90;41.30;99164.56;4718609;29;103074;-81
2021/05/03 11:38:03;;;;;;;3.05;2.80;;;;;;;15.89;38.92;99162.00;4701363;29;103712;-77
2021/05/03 11:40:52;;;;;;;2.70;2.50;;;;;;;15.99;39.22;99152.25;4704142;29;104904;-76
2021/05/03 11:46:11;;;;;;;3.20;2.78;;;;;;;15.51;38.02;99144.88;4708343;29;105334;-80
2021/05/03 11:48:39;;;;;;;2.70;2.50;;;;;;;16.60;39.49;99129.88;4703383;29;104018;-75
2021/05/03 11:51:09;;;;;;;3.00;2.67;;;;;;;16.30;39.06;99127.25;4698438;29;106109;-80
2021/05/03 11:53:38;;;;;;;5.20;3.03;;;;;;;15.65;37.95;99141.88;4710572;29;103463;-76
2021/05/03 11:56:24;;;;;;;3.53;2.75;;;;;;;16.06;39.30;99134.72;4696810;29;103284;-77